Flight Track Log - Related Links

Times and Time Zones

All times are in EDT time to prevent confusion due to time zone crossing. See the PDT4226 flight status page for this flight to view local times or setup timezone preferences in your user account.

Time Position Orientation Groundspeed Altitude Reporting Facility
EDT Latitude Longitude Course Direction KTS MPH feet Rate Location/Type
Tue 12:32:58 PM 39.9000 -75.2333 311° West 123 142 500  Level Philadelphia TRACON
Tue 12:33:34 PM 39.9000 -75.2667 270° West 122 140 1,400 1,188 Climbing Philadelphia TRACON
Tue 12:34:34 PM 39.9167 -75.3000 303° West 150 173 2,400 1,150 Climbing Philadelphia TRACON
Tue 12:35:34 PM 39.9333 -75.3667 288° West 159 183 3,700 1,388 Climbing Philadelphia TRACON
Tue 12:36:35 PM 39.9500 -75.4167 294° West 152 175 5,200 1,388 Climbing Philadelphia TRACON
Tue 12:37:00 PM 40.1817 -75.5226 311° West  Level FlightAware Approximate
Tue 12:37:35 PM 39.9500 -75.4667 270° West 151 174 6,500  Level Philadelphia TRACON
Tue 12:38:00 PM 40.2396 -75.5843 311° West  Level FlightAware Approximate
Tue 12:38:40 PM 39.9500 -75.5333 270° West 162 186 7,700  Level Philadelphia TRACON
Tue 12:39:41 PM 40.0000 -75.5333 360° North 211 243 8,700 645 Climbing Philadelphia TRACON
Tue 12:40:41 PM 40.0667 -75.5333 360° North 233 268 9,000 367 Climbing Philadelphia TRACON
Tue 12:42:08 PM 40.1647 -75.5486 353° North 248 285 9,600 405 Climbing New York Center
Tue 12:43:09 PM 40.2331 -75.5614 352° North 255 293 10,000 202 Climbing New York Center
Tue 12:44:07 PM 40.2700 -75.6267 307° West 219 252 10,000  Level New York Center
Tue 12:45:09 PM 40.3069 -75.6864 309° West 224 258 10,000 49 Level New York Center
Tue 12:46:09 PM 40.3519 -75.7606 309° West 237 273 10,100 303 Climbing New York Center
Tue 12:47:08 PM 40.3972 -75.8208 315° West 237 273 10,600 454 Climbing New York Center
Tue 12:48:08 PM 40.4542 -75.8578 334° Northwest 227 261 11,000 295 Climbing New York Center
Tue 12:49:10 PM 40.5111 -75.8867 339° North 234 269 11,200 600 Climbing New York Center
Tue 12:50:08 PM 40.5706 -75.9103 343° North 227 261 12,200 900 Climbing New York Center
Tue 12:51:10 PM 40.6342 -75.9314 346° North 222 255 13,000 650 Climbing New York Center
Tue 12:52:08 PM 40.6914 -75.9603 339° North 222 255 13,500 504 Climbing New York Center
Tue 12:53:09 PM 40.7503 -75.9950 336° Northwest 222 255 14,000 246 Climbing New York Center
Tue 12:54:10 PM 40.8114 -76.0269 338° Northwest 234 269 14,000  Level New York Center
Tue 12:55:08 PM 40.8769 -76.0514 344° North 239 275 14,000  Level New York Center
Tue 12:56:08 PM 40.9358 -76.0833 338° Northwest 246 283 14,000  Level New York Center
Tue 12:57:10 PM 41.0014 -76.1131 341° North 246 283 14,000  Level New York Center
Tue 12:58:08 PM 41.0772 -76.1383 346° North 246 283 14,000  Level New York Center
Tue 12:59:09 PM 41.1469 -76.1606 347° North 252 290 14,000  Level New York Center
Tue 01:00:08 PM 41.2142 -76.1961 338° Northwest 257 296 14,000  Level New York Center
Tue 01:01:09 PM 41.2761 -76.2067 353° North 257 296 14,000  Level New York Center
Tue 01:02:10 PM 41.3494 -76.1961 North 257 296 14,000  Level New York Center
Tue 01:03:09 PM 41.4308 -76.1969 360° North 257 296 14,000  Level New York Center
Tue 01:04:09 PM 41.5000 -76.1889 North 257 296 14,000 -200 Level New York Center
Tue 01:05:09 PM 41.5733 -76.1781 North 257 296 13,600 -807 Descending New York Center
Tue 01:06:08 PM 41.6442 -76.1783 360° North 271 312 12,400 -1,250 Descending New York Center
Tue 01:07:09 PM 41.7294 -76.1797 359° North 290 334 11,100 -1,180 Descending New York Center
Tue 01:08:10 PM 41.8147 -76.1364 21° North 300 345 10,000 -1,261 Descending New York Center
Tue 01:09:08 PM 41.8842 -76.0725 34° Northeast 301 346 8,600 -1,250 Descending New York Center
Tue 01:10:10 PM 41.9397 -75.9906 48° Northeast 294 338 7,500 -1,131 Descending New York Center
Tue 01:11:10 PM 41.9808 -75.9100 56° Northeast 294 338 6,300 -1,412 Descending New York Center
Tue 01:12:09 PM 42.0281 -75.8269 53° Northeast 281 323 4,700 -1,160 Descending New York Center
Tue 01:13:09 PM 42.0786 -75.8644 331° Northwest 164 189 4,000 -600 Descending New York Center
Tue 01:14:09 PM 42.1142 -75.9036 321° Northwest 150 173 3,500 -650 Descending New York Center
Tue 01:15:09 PM 42.1506 -75.9344 328° Northwest 155 178 2,700 -750 Descending New York Center
Tue 01:16:09 PM 42.1828 -75.9592 330° Northwest 155 178 2,000 -347 Descending New York Center
Tue 01:17:10 PM 42.2147 -75.9897 325° Northwest 155 178 2,000  Level New York Center

Login

Don't have an account? Register now (free) for customized features, flight alerts, and more!